createdAt,value
2018-09-20T00:02:10.674Z,53.80
2018-09-20T00:07:13.779Z,54.00
2018-09-20T00:12:16.903Z,53.90
2018-09-20T00:17:19.990Z,54.00
2018-09-20T00:22:23.074Z,54.00
2018-09-20T00:27:26.179Z,54.00
2018-09-20T00:32:29.306Z,54.10
2018-09-20T00:37:32.390Z,54.10
2018-09-20T00:42:35.487Z,54.20
2018-09-20T00:47:38.595Z,54.20
2018-09-20T00:52:41.811Z,54.30
2018-09-20T00:57:44.914Z,54.40
2018-09-20T01:02:48.064Z,54.40
2018-09-20T01:07:51.163Z,54.40
2018-09-20T01:12:54.327Z,54.50
2018-09-20T01:17:57.443Z,54.60
2018-09-20T01:23:00.562Z,54.60
2018-09-20T01:28:03.676Z,54.50
2018-09-20T01:33:06.803Z,54.60
2018-09-20T01:38:09.909Z,54.60
2018-09-20T01:43:13.014Z,54.80
2018-09-20T01:48:16.122Z,54.90
2018-09-20T01:53:19.280Z,54.90
2018-09-20T01:58:22.443Z,55.10
2018-09-20T02:03:25.554Z,54.90
2018-09-20T02:08:28.650Z,55.10
2018-09-20T02:13:31.858Z,55.20
2018-09-20T02:18:34.975Z,55.30
2018-09-20T02:23:38.108Z,55.30
2018-09-20T02:28:41.394Z,55.20
2018-09-20T02:33:44.500Z,55.60
2018-09-20T02:38:47.611Z,56.10
2018-09-20T02:43:50.727Z,55.60
2018-09-20T02:48:53.815Z,55.60
2018-09-20T02:53:56.934Z,55.60
2018-09-20T02:59:00.098Z,55.60
2018-09-20T03:04:03.175Z,55.80
2018-09-20T03:09:08.088Z,56.00
2018-09-20T03:14:11.199Z,56.00
2018-09-20T03:19:14.299Z,56.00
2018-09-20T03:24:17.679Z,55.90
2018-09-20T03:29:20.763Z,56.00
2018-09-20T03:34:23.872Z,56.10
2018-09-20T03:39:58.673Z,56.30
2018-09-20T03:45:01.896Z,56.20
2018-09-20T03:50:05.166Z,56.40
2018-09-20T03:55:08.253Z,56.60
2018-09-20T04:00:11.381Z,56.50
2018-09-20T04:05:14.467Z,56.60
2018-09-20T04:10:17.603Z,56.60
2018-09-20T04:15:20.680Z,56.80
2018-09-20T04:20:23.791Z,56.80
2018-09-20T04:25:26.971Z,56.90
2018-09-20T04:30:30.126Z,57.00
2018-09-20T04:35:33.260Z,57.00
2018-09-20T04:40:36.379Z,57.10
2018-09-20T04:45:39.575Z,57.10
2018-09-20T04:50:42.744Z,57.20
2018-09-20T04:55:45.883Z,57.40
2018-09-20T05:00:48.975Z,57.50
2018-09-20T05:05:52.188Z,57.60
2018-09-20T05:10:55.312Z,57.60
2018-09-20T05:15:58.446Z,57.70
2018-09-20T05:21:01.760Z,57.70
2018-09-20T05:26:04.855Z,57.80
2018-09-20T05:31:07.963Z,57.60
2018-09-20T05:36:11.083Z,57.80
2018-09-20T05:41:14.183Z,57.90
2018-09-20T05:46:17.471Z,58.40
2018-09-20T05:51:20.562Z,57.70
2018-09-20T05:56:23.679Z,57.90
2018-09-20T06:01:26.811Z,58.00
2018-09-20T06:06:29.929Z,58.10
2018-09-20T06:11:33.029Z,58.10
2018-09-20T06:16:36.147Z,58.10
2018-09-20T06:21:39.287Z,58.00
2018-09-20T06:26:42.447Z,58.00
2018-09-20T06:31:45.622Z,58.10
2018-09-20T06:36:48.881Z,58.10
2018-09-20T06:41:52.204Z,58.10
2018-09-20T06:46:55.339Z,58.00
2018-09-20T06:51:58.468Z,58.10
2018-09-20T06:57:01.558Z,58.10
2018-09-20T07:02:04.671Z,58.10
2018-09-20T07:07:07.804Z,58.00
2018-09-20T07:12:10.928Z,58.00
2018-09-20T07:17:14.036Z,58.20
2018-09-20T07:22:17.162Z,58.30
2018-09-20T07:27:20.271Z,58.40
2018-09-20T07:32:23.375Z,58.40
2018-09-20T07:37:26.504Z,58.30
2018-09-20T07:42:29.625Z,58.40
2018-09-20T07:47:32.736Z,58.20
2018-09-20T07:52:35.899Z,58.00
2018-09-20T07:57:39.015Z,58.00
2018-09-20T08:02:42.257Z,58.00
2018-09-20T08:07:45.375Z,58.50
2018-09-20T08:12:48.518Z,57.90
2018-09-20T08:17:51.602Z,57.80
2018-09-20T08:22:54.719Z,57.30
2018-09-20T08:27:57.873Z,57.10
2018-09-20T08:33:00.947Z,57.10
2018-09-20T08:38:04.052Z,57.00
2018-09-20T08:43:07.169Z,56.90
2018-09-20T08:48:10.267Z,56.50
2018-09-20T08:53:13.359Z,56.60
2018-09-20T08:58:16.528Z,56.70
2018-09-20T09:03:19.639Z,56.20
2018-09-20T09:08:22.751Z,56.00
2018-09-20T09:13:25.882Z,55.70
2018-09-20T09:18:28.968Z,55.50
2018-09-20T09:23:32.068Z,54.90
2018-09-20T09:28:35.422Z,54.90
2018-09-20T09:33:38.532Z,55.00
2018-09-20T09:38:41.647Z,54.50
2018-09-20T09:43:44.804Z,54.50
2018-09-20T09:48:47.915Z,54.40
2018-09-20T09:53:51.030Z,54.00
2018-09-20T09:58:54.142Z,53.80
2018-09-20T10:03:57.285Z,53.50
2018-09-20T10:09:00.428Z,52.90
2018-09-20T10:14:03.555Z,52.60
2018-09-20T10:19:06.679Z,52.60
2018-09-20T10:24:09.872Z,52.00
2018-09-20T10:29:12.981Z,51.30
2018-09-20T10:34:16.070Z,50.90
2018-09-20T10:39:19.183Z,50.30
2018-09-20T10:44:22.299Z,49.90
2018-09-20T10:49:25.424Z,49.60
2018-09-20T10:54:28.606Z,49.50
2018-09-20T10:59:31.623Z,49.30
2018-09-20T11:04:34.727Z,49.20
2018-09-20T11:09:37.831Z,48.80
2018-09-20T11:14:40.940Z,48.20
2018-09-20T11:19:44.132Z,47.50
2018-09-20T11:24:47.282Z,47.20
2018-09-20T11:29:50.416Z,47.00
2018-09-20T11:34:53.523Z,46.30
2018-09-20T11:39:56.640Z,46.10
2018-09-20T11:44:59.742Z,46.10
2018-09-20T11:50:02.882Z,45.60
2018-09-20T11:55:06.011Z,45.40
2018-09-20T12:00:09.124Z,44.80
2018-09-20T12:05:12.259Z,45.00
2018-09-20T12:10:15.579Z,44.50
2018-09-20T12:15:18.720Z,44.20
2018-09-20T12:20:21.803Z,44.40
2018-09-20T12:25:24.914Z,44.00
2018-09-20T12:30:28.267Z,43.70
2018-09-20T12:35:31.432Z,43.30
2018-09-20T12:40:34.555Z,43.30
2018-09-20T12:45:37.769Z,43.20
2018-09-20T12:50:40.896Z,43.10
2018-09-20T12:55:43.996Z,43.30
2018-09-20T13:00:47.200Z,43.20
2018-09-20T13:05:50.339Z,43.10
2018-09-20T13:10:53.483Z,43.20
2018-09-20T13:15:56.589Z,42.70
2018-09-20T13:20:59.705Z,42.40
2018-09-20T13:26:02.813Z,42.80
2018-09-20T13:31:05.956Z,42.60
2018-09-20T13:36:09.053Z,42.30
2018-09-20T13:41:12.149Z,42.70
2018-09-20T13:46:15.252Z,42.70
2018-09-20T13:51:18.336Z,42.80
2018-09-20T13:56:21.473Z,42.70
2018-09-20T14:01:24.528Z,43.00
2018-09-20T14:06:27.673Z,42.80
2018-09-20T14:11:30.789Z,42.70
2018-09-20T14:16:33.932Z,42.90
2018-09-20T14:21:37.146Z,42.90
2018-09-20T14:26:40.254Z,42.10
2018-09-20T14:31:43.340Z,42.30
2018-09-20T14:36:46.530Z,42.00
2018-09-20T14:41:49.577Z,42.20
2018-09-20T14:46:52.684Z,42.40
2018-09-20T14:51:55.800Z,42.30
2018-09-20T14:56:59.095Z,43.10
2018-09-20T15:02:02.215Z,42.30
2018-09-20T15:07:05.356Z,42.60
2018-09-20T15:12:08.468Z,42.50
2018-09-20T15:17:11.571Z,42.60
2018-09-20T15:22:14.677Z,42.60
2018-09-20T15:27:17.867Z,42.70
2018-09-20T15:32:21.008Z,42.50
2018-09-20T15:37:24.068Z,42.50
2018-09-20T15:42:27.168Z,42.30
2018-09-20T15:47:30.273Z,43.00
2018-09-20T15:52:33.356Z,42.90
2018-09-20T15:57:36.468Z,42.60
2018-09-20T16:02:39.588Z,42.80
2018-09-20T16:07:42.728Z,42.50
2018-09-20T16:12:45.842Z,42.00
2018-09-20T16:17:48.943Z,42.30
2018-09-20T16:22:52.087Z,41.90
2018-09-20T16:27:58.941Z,41.60
2018-09-20T16:33:17.020Z,41.90
2018-09-20T16:38:58.244Z,42.20
2018-09-20T16:44:01.335Z,41.90
2018-09-20T16:49:04.466Z,42.30
2018-09-20T16:54:07.595Z,42.60
2018-09-20T16:59:10.708Z,42.70
2018-09-20T17:04:13.820Z,43.00
2018-09-20T17:09:16.920Z,43.30
2018-09-20T17:14:20.073Z,43.60
2018-09-20T17:19:23.162Z,43.50
2018-09-20T17:24:26.244Z,43.70
2018-09-20T17:29:29.351Z,44.20
2018-09-20T17:34:32.639Z,44.50
2018-09-20T17:39:36.940Z,44.80
2018-09-20T17:44:40.056Z,44.90
2018-09-20T17:49:43.158Z,45.20
2018-09-20T17:54:46.797Z,45.30
2018-09-20T17:59:49.942Z,45.60
2018-09-20T18:04:53.052Z,45.80
2018-09-20T18:09:56.204Z,46.10
2018-09-20T18:14:59.330Z,46.20
2018-09-20T18:20:02.536Z,46.40
2018-09-20T18:25:05.756Z,46.50
2018-09-20T18:30:08.899Z,46.70
2018-09-20T18:35:12.036Z,46.90
2018-09-20T18:40:15.156Z,47.00
2018-09-20T18:45:18.247Z,47.30
2018-09-20T18:50:21.359Z,47.40
2018-09-20T18:55:24.504Z,47.60
2018-09-20T19:00:27.580Z,47.60
2018-09-20T19:05:30.745Z,47.90
2018-09-20T19:10:33.872Z,48.00
2018-09-20T19:15:37.099Z,48.20
2018-09-20T19:20:40.455Z,48.30
2018-09-20T19:25:43.576Z,48.60
2018-09-20T19:30:46.684Z,48.60
2018-09-20T19:35:49.789Z,49.30
2018-09-20T19:40:52.905Z,48.80
2018-09-20T19:45:56.063Z,48.90
2018-09-20T19:50:59.163Z,48.90
2018-09-20T19:56:02.367Z,49.20
2018-09-20T20:01:05.603Z,49.20
2018-09-20T20:06:08.738Z,49.40
2018-09-20T20:11:11.837Z,49.40
2018-09-20T20:16:14.915Z,49.50
2018-09-20T20:21:18.107Z,49.60
2018-09-20T20:26:21.295Z,49.50
2018-09-20T20:31:24.514Z,49.80
2018-09-20T20:36:27.866Z,50.00
2018-09-20T20:41:30.996Z,50.00
2018-09-20T20:46:34.096Z,50.10
2018-09-20T20:51:37.205Z,50.30
2018-09-20T20:56:40.319Z,50.10
2018-09-20T21:01:43.481Z,50.20
2018-09-20T21:06:46.610Z,50.30
2018-09-20T21:11:49.715Z,50.30
2018-09-20T21:16:52.911Z,50.40
2018-09-20T21:21:56.091Z,50.60
2018-09-20T21:26:59.349Z,50.50
2018-09-20T21:32:02.524Z,50.70
2018-09-20T21:37:05.726Z,50.60
2018-09-20T21:42:08.911Z,50.80
2018-09-20T21:47:12.043Z,50.90
2018-09-20T21:52:15.231Z,51.10
2018-09-20T21:57:18.320Z,51.00
2018-09-20T22:02:26.975Z,51.00
2018-09-20T22:07:30.075Z,51.20
2018-09-20T22:12:33.164Z,51.00
2018-09-20T22:17:36.319Z,51.40
2018-09-20T22:22:39.426Z,51.20
2018-09-20T22:27:42.582Z,51.10
2018-09-20T22:32:45.886Z,51.30
2018-09-20T22:37:48.988Z,51.40
2018-09-20T22:42:52.091Z,51.30
2018-09-20T22:47:55.203Z,51.60
2018-09-20T22:52:58.311Z,51.60
2018-09-20T22:58:01.407Z,51.70
2018-09-20T23:03:04.507Z,51.80
2018-09-20T23:08:07.601Z,51.70
2018-09-20T23:13:10.696Z,51.70
2018-09-20T23:18:13.808Z,51.80
2018-09-20T23:23:16.925Z,51.80
2018-09-20T23:28:20.003Z,51.90
2018-09-20T23:33:23.078Z,52.10
2018-09-20T23:38:26.206Z,51.90
2018-09-20T23:43:29.307Z,52.10
2018-09-20T23:48:32.408Z,52.10
2018-09-20T23:53:35.547Z,52.20
2018-09-20T23:58:38.669Z,52.00
